Time;durP1;ratioP1;P1;durP2;ratioP2;P2;SDS_P1;SDS_P2;PMS_P1;PMS_P2;Temp;Humidity;BMP_temperature;BMP_pressure;BME280_temperature;BME280_humidity;BME280_pressure;Samples;Min_cycle;Max_cycle;Signal;HPM_P1;HPM_P2
2021/04/27 00:00:36;;;;;;;1.07;1.07;;;;;;;6.83;39.83;96079.75;5093934;28;20181;-58
2021/04/27 00:03:04;;;;;;;1.10;1.10;;;;;;;6.83;39.91;96076.34;5087196;28;20622;-60
2021/04/27 00:05:29;;;;;;;1.67;1.60;;;;;;;6.73;39.78;96070.88;5093859;28;20195;-60
2021/04/27 00:07:55;;;;;;;1.30;1.27;;;;;;;6.65;40.25;96072.75;5094858;28;20625;-60
2021/04/27 00:10:21;;;;;;;1.10;1.10;;;;;;;6.55;40.43;96066.47;5093960;28;20172;-58
2021/04/27 00:12:47;;;;;;;1.37;1.37;;;;;;;6.54;40.24;96064.88;5094542;28;20702;-60
2021/04/27 00:15:22;;;;;;;1.40;1.33;;;;;;;6.56;40.52;96052.44;5094296;28;20168;-60
2021/04/27 00:17:49;;;;;;;1.30;1.20;;;;;;;6.51;40.70;96058.31;5094190;28;20607;-59
2021/04/27 00:20:15;;;;;;;1.00;1.00;;;;;;;6.50;40.78;96053.31;5094153;28;20330;-60
2021/04/27 00:22:41;;;;;;;1.40;1.40;;;;;;;6.51;40.76;96050.50;5093605;28;20226;-59
2021/04/27 00:25:07;;;;;;;1.40;1.33;;;;;;;6.48;40.81;96047.53;5093963;28;20176;-60
2021/04/27 00:27:33;;;;;;;1.30;1.30;;;;;;;6.41;41.09;96050.19;5093389;28;20245;-60
2021/04/27 00:29:58;;;;;;;1.17;1.17;;;;;;;6.32;41.19;96055.94;5094225;28;20265;-58
2021/04/27 00:32:24;;;;;;;1.10;1.10;;;;;;;6.30;42.03;96047.56;5093357;28;20196;-56
2021/04/27 00:34:50;;;;;;;1.20;1.20;;;;;;;6.29;41.55;96035.56;5093841;28;20184;-58
2021/04/27 00:37:17;;;;;;;1.13;1.13;;;;;;;6.35;41.62;96038.09;5093427;28;20255;-59
2021/04/27 00:39:43;;;;;;;1.90;1.43;;;;;;;6.32;41.60;96038.50;5093395;28;20264;-59
2021/04/27 00:42:09;;;;;;;1.47;1.37;;;;;;;6.24;41.75;96038.81;5071767;28;20312;-59
2021/04/27 00:44:35;;;;;;;1.17;1.17;;;;;;;6.22;41.92;96027.81;5089470;28;20787;-58
2021/04/27 00:47:00;;;;;;;1.10;1.10;;;;;;;6.22;42.02;96027.81;5092928;28;20242;-59
2021/04/27 00:49:26;;;;;;;1.23;1.23;;;;;;;6.13;42.36;96035.09;5092405;28;20176;-58
2021/04/27 00:51:51;;;;;;;1.17;1.17;;;;;;;6.20;42.18;96027.22;5093989;28;20176;-58
2021/04/27 00:54:17;;;;;;;1.17;1.17;;;;;;;6.24;41.70;96021.38;5092833;28;20212;-59
2021/04/27 00:56:42;;;;;;;1.30;1.20;;;;;;;6.16;42.56;96019.09;5081478;28;20235;-59
2021/04/27 00:59:08;;;;;;;1.40;1.30;;;;;;;6.19;42.38;96025.63;5068405;28;20264;-59
2021/04/27 01:01:33;;;;;;;1.20;1.20;;;;;;;6.09;42.38;96020.94;5060937;28;20181;-60
2021/04/27 01:03:59;;;;;;;1.50;1.40;;;;;;;6.07;42.80;96012.59;5045397;28;20209;-59
2021/04/27 01:06:25;;;;;;;1.40;1.40;;;;;;;6.12;42.70;96020.53;5066406;28;20185;-59
2021/04/27 01:09:20;;;;;;;1.33;1.30;;;;;;;5.99;42.92;96022.47;5064737;28;20172;-59
2021/04/27 01:11:55;;;;;;;1.10;1.10;;;;;;;5.83;44.04;96014.19;5055654;28;20554;-59
2021/04/27 01:14:29;;;;;;;1.10;1.10;;;;;;;5.84;43.20;96013.19;5067565;28;20173;-59
2021/04/27 01:17:02;;;;;;;1.30;1.30;;;;;;;5.85;43.92;96012.16;5063360;28;20197;-59
2021/04/27 01:19:37;;;;;;;1.07;1.07;;;;;;;5.81;43.61;96013.63;5060635;28;20667;-57
2021/04/27 01:22:05;;;;;;;1.10;1.10;;;;;;;5.85;43.72;96006.97;5056483;28;20634;-60
2021/04/27 01:24:45;;;;;;;1.33;1.30;;;;;;;5.78;43.90;96011.47;5064379;28;20178;-59
2021/04/27 01:27:11;;;;;;;1.10;1.10;;;;;;;5.67;43.96;96001.75;5061182;28;20192;-59
2021/04/27 01:29:38;;;;;;;1.10;1.10;;;;;;;5.79;43.82;96007.06;5059961;28;20177;-58
2021/04/27 01:32:05;;;;;;;1.10;1.10;;;;;;;5.70;44.27;96003.91;5064541;28;20170;-58
2021/04/27 01:34:39;;;;;;;1.07;1.07;;;;;;;5.67;44.60;95993.97;5056136;28;20240;-58
2021/04/27 01:37:05;;;;;;;1.30;1.30;;;;;;;5.63;44.45;95992.78;5056614;28;20185;-59
2021/04/27 01:39:32;;;;;;;1.13;1.13;;;;;;;5.69;44.70;95993.72;5064165;28;20293;-59
2021/04/27 01:42:02;;;;;;;1.10;1.10;;;;;;;5.53;45.49;95991.69;5066663;28;20181;-58
2021/04/27 01:44:30;;;;;;;1.20;1.20;;;;;;;5.58;44.89;95989.25;5059309;28;20527;-58
2021/04/27 01:46:57;;;;;;;1.40;1.40;;;;;;;5.48;45.65;95994.94;5061708;28;20272;-61
2021/04/27 01:49:24;;;;;;;2.57;1.30;;;;;;;5.53;45.11;95992.50;5057825;28;20185;-57
2021/04/27 01:51:53;;;;;;;1.07;1.07;;;;;;;5.54;45.01;95988.09;5061462;28;20176;-58
2021/04/27 01:54:28;;;;;;;1.10;1.10;;;;;;;5.43;45.44;95984.38;5066120;28;20181;-61
2021/04/27 01:56:55;;;;;;;1.00;1.00;;;;;;;5.48;45.84;95986.34;5071834;28;20598;-59
2021/04/27 01:59:20;;;;;;;1.00;1.00;;;;;;;5.42;46.03;95988.00;5090513;28;20746;-61
2021/04/27 02:01:47;;;;;;;1.23;1.23;;;;;;;5.35;46.13;95985.44;5092616;28;20188;-59
2021/04/27 02:04:23;;;;;;;1.10;1.10;;;;;;;5.23;45.97;95979.38;5092374;28;20289;-60
2021/04/27 02:06:49;;;;;;;1.00;1.00;;;;;;;5.21;45.68;95972.78;5092045;28;20176;-59
2021/04/27 02:09:20;;;;;;;1.00;1.00;;;;;;;5.09;47.02;95967.50;5092457;28;20678;-59
2021/04/27 02:11:50;;;;;;;0.90;0.90;;;;;;;5.10;46.56;95973.47;5092594;28;20176;-60
2021/04/27 02:14:16;;;;;;;1.10;1.10;;;;;;;5.08;46.78;95963.28;5091878;28;20837;-59
2021/04/27 02:16:50;;;;;;;1.10;1.10;;;;;;;5.08;46.68;95967.69;5091446;28;20181;-59
2021/04/27 02:19:16;;;;;;;1.00;1.00;;;;;;;5.00;46.57;95968.78;5091836;28;20200;-60
2021/04/27 02:21:43;;;;;;;1.00;1.00;;;;;;;4.97;47.21;95964.78;5091455;28;20267;-58
2021/04/27 02:24:09;;;;;;;1.20;1.20;;;;;;;4.99;47.54;95962.78;5070437;28;20605;-58
2021/04/27 02:26:36;;;;;;;1.00;1.00;;;;;;;4.98;47.08;95963.78;5079729;28;20291;-59
2021/04/27 02:29:08;;;;;;;1.30;1.20;;;;;;;4.90;47.72;95968.44;5091976;28;20179;-58
2021/04/27 02:31:34;;;;;;;1.00;1.00;;;;;;;4.93;46.79;95971.41;5091204;28;20175;-59
2021/04/27 02:34:01;;;;;;;1.40;1.30;;;;;;;4.94;47.58;95970.41;5091455;28;20282;-59
2021/04/27 02:36:28;;;;;;;0.83;0.83;;;;;;;5.01;47.04;95970.38;5091050;28;20260;-58
2021/04/27 02:38:54;;;;;;;1.10;1.10;;;;;;;5.05;47.03;95965.53;5091324;28;20606;-59
2021/04/27 02:41:19;;;;;;;1.37;1.27;;;;;;;4.85;47.15;95963.88;5091063;28;20732;-58
2021/04/27 02:43:46;;;;;;;1.00;1.00;;;;;;;4.92;47.78;95956.03;5090969;28;20273;-59
2021/04/27 02:46:12;;;;;;;1.27;1.17;;;;;;;4.81;47.74;95954.13;5091471;28;20254;-58
2021/04/27 02:48:38;;;;;;;1.20;1.20;;;;;;;4.68;48.74;95949.03;5090319;28;20700;-59
2021/04/27 02:51:04;;;;;;;1.20;1.20;;;;;;;4.60;48.49;95950.06;5091565;28;20200;-59
2021/04/27 02:53:30;;;;;;;1.20;1.20;;;;;;;4.60;48.52;95939.69;5090996;28;20242;-59
2021/04/27 02:55:55;;;;;;;1.47;1.30;;;;;;;4.70;48.49;95944.41;5087582;28;20211;-57
2021/04/27 02:58:22;;;;;;;0.93;0.93;;;;;;;4.71;48.56;95946.81;5066848;28;20208;-60
2021/04/27 03:00:48;;;;;;;1.13;1.13;;;;;;;4.69;48.80;95938.44;5071530;28;20284;-59
2021/04/27 03:03:14;;;;;;;1.13;1.13;;;;;;;4.65;49.30;95939.06;5054531;28;20201;-59
2021/04/27 03:05:40;;;;;;;1.00;1.00;;;;;;;4.67;48.24;95935.25;5067086;28;20676;-56
2021/04/27 03:08:06;;;;;;;1.33;1.23;;;;;;;4.67;48.76;95937.88;5059731;28;20170;-58
2021/04/27 03:10:32;;;;;;;1.10;1.10;;;;;;;4.61;48.65;95941.28;5057627;28;20215;-58
2021/04/27 03:12:58;;;;;;;0.90;0.90;;;;;;;4.55;49.08;95934.34;5068428;28;20304;-59
2021/04/27 03:15:23;;;;;;;1.23;1.23;;;;;;;4.54;49.54;95932.75;5070085;28;20678;-56
2021/04/27 03:17:49;;;;;;;1.10;1.10;;;;;;;4.48;49.28;95934.38;5053861;28;20209;-58
2021/04/27 03:20:15;;;;;;;1.20;1.17;;;;;;;4.56;49.40;95936.75;5068555;28;21334;-55
2021/04/27 03:22:42;;;;;;;1.53;1.30;;;;;;;4.58;49.59;95939.91;5069981;28;20205;-60
2021/04/27 03:25:09;;;;;;;1.27;1.27;;;;;;;4.60;49.57;95931.91;5058631;28;20177;-59
2021/04/27 03:27:35;;;;;;;1.00;1.00;;;;;;;4.57;49.50;95937.50;5066468;28;20185;-59
2021/04/27 03:30:02;;;;;;;1.10;1.10;;;;;;;4.52;49.78;95935.53;5054775;28;20173;-59
2021/04/27 03:32:28;;;;;;;0.80;0.80;;;;;;;4.37;49.93;95929.84;5063145;28;20678;-58
2021/04/27 03:34:53;;;;;;;1.03;1.03;;;;;;;4.46;49.10;95936.38;5061780;28;20169;-60
2021/04/27 03:37:19;;;;;;;1.07;1.07;;;;;;;4.41;49.84;95938.00;5057896;28;20675;-60
2021/04/27 03:39:45;;;;;;;1.60;1.50;;;;;;;4.32;50.52;95936.66;5066578;28;20181;-59
2021/04/27 03:42:10;;;;;;;1.30;1.30;;;;;;;4.30;50.55;95936.06;5055418;28;20174;-59
2021/04/27 03:44:36;;;;;;;0.93;0.93;;;;;;;4.38;50.34;95933.25;5061892;28;20197;-59
2021/04/27 03:47:02;;;;;;;0.93;0.93;;;;;;;4.34;49.94;95938.06;5062789;28;20182;-60
2021/04/27 03:49:27;;;;;;;1.00;1.00;;;;;;;4.32;50.86;95937.47;5065227;28;20346;-59
2021/04/27 03:51:53;;;;;;;1.23;1.23;;;;;;;4.30;50.63;95936.88;5053703;28;20174;-60
2021/04/27 03:54:19;;;;;;;1.00;1.00;;;;;;;4.29;51.09;95932.69;5051314;28;20228;-60
2021/04/27 03:56:44;;;;;;;0.80;0.80;;;;;;;4.25;51.41;95938.50;5074219;28;20240;-60
2021/04/27 03:59:10;;;;;;;1.17;1.17;;;;;;;4.07;51.75;95929.59;5072105;28;20196;-59
2021/04/27 04:01:35;;;;;;;1.10;1.10;;;;;;;4.13;51.83;95938.34;5089698;28;20181;-60
2021/04/27 04:04:02;;;;;;;1.33;1.23;;;;;;;4.18;51.81;95928.94;5090913;28;20372;-59
2021/04/27 04:06:27;;;;;;;1.10;1.10;;;;;;;4.00;52.13;95930.66;5090372;28;20169;-59
2021/04/27 04:08:53;;;;;;;1.00;1.00;;;;;;;3.98;52.03;95938.63;5090869;28;20187;-60
2021/04/27 04:11:18;;;;;;;1.60;1.50;;;;;;;3.95;52.14;95939.06;5090869;28;20254;-60
2021/04/27 04:13:44;;;;;;;1.10;1.10;;;;;;;3.80;53.16;95935.91;5089743;28;20208;-60
2021/04/27 04:16:09;;;;;;;1.30;1.30;;;;;;;3.83;52.79;95938.09;5090726;28;20195;-60
2021/04/27 04:18:35;;;;;;;1.80;1.27;;;;;;;3.88;53.38;95935.69;5089895;28;20189;-59
2021/04/27 04:21:00;;;;;;;1.10;1.10;;;;;;;3.96;53.33;95938.03;5091107;28;20182;-60
2021/04/27 04:23:26;;;;;;;0.90;0.90;;;;;;;3.84;53.98;95937.09;5093424;28;20197;-59
2021/04/27 04:25:52;;;;;;;1.33;1.23;;;;;;;3.91;53.14;95939.66;5094418;28;20226;-60
2021/04/27 04:28:17;;;;;;;1.00;1.00;;;;;;;3.88;53.02;95940.06;5094236;28;20203;-59
2021/04/27 04:30:43;;;;;;;1.10;1.10;;;;;;;3.97;52.59;95941.41;5093469;28;20196;-59
2021/04/27 04:33:08;;;;;;;1.10;1.10;;;;;;;3.97;53.61;95938.81;5093688;28;20291;-59
2021/04/27 04:35:34;;;;;;;3.33;1.20;;;;;;;3.87;53.74;95943.66;5093257;28;20176;-60
2021/04/27 04:38:00;;;;;;;1.03;1.03;;;;;;;3.61;54.18;95942.75;5093922;28;20548;-61
2021/04/27 04:40:26;;;;;;;1.60;1.50;;;;;;;3.70;54.01;95948.50;5093005;28;20267;-60
2021/04/27 04:42:51;;;;;;;2.07;1.40;;;;;;;3.76;54.04;95945.09;5093717;28;20201;-61
2021/04/27 04:45:17;;;;;;;1.17;1.17;;;;;;;3.73;54.20;95943.69;5093968;28;20176;-60
2021/04/27 04:47:44;;;;;;;2.07;1.53;;;;;;;3.70;54.84;95943.31;5074281;28;20657;-60
2021/04/27 04:50:12;;;;;;;1.37;1.00;;;;;;;3.71;54.52;95939.72;5093956;28;20185;-61
2021/04/27 04:52:38;;;;;;;1.13;1.13;;;;;;;3.84;54.36;95942.28;5092738;28;20200;-57
2021/04/27 04:55:08;;;;;;;1.10;1.10;;;;;;;3.80;54.69;95948.06;5093769;28;20705;-61
2021/04/27 04:57:35;;;;;;;1.20;1.20;;;;;;;3.74;54.54;95941.91;5090270;28;20251;-60
2021/04/27 05:00:03;;;;;;;1.33;1.23;;;;;;;3.90;54.79;95944.03;5093668;28;20532;-60
2021/04/27 05:02:28;;;;;;;1.20;1.20;;;;;;;4.10;53.80;95942.16;5092549;28;20224;-60
2021/04/27 05:04:54;;;;;;;1.17;1.17;;;;;;;4.24;53.15;95942.88;5093275;28;20664;-60
2021/04/27 05:07:22;;;;;;;1.53;1.43;;;;;;;4.19;53.57;95937.53;5092971;28;20200;-59
2021/04/27 05:09:48;;;;;;;1.43;1.33;;;;;;;4.25;54.08;95946.28;5093004;28;20168;-58
2021/04/27 05:12:13;;;;;;;1.77;1.67;;;;;;;4.24;53.56;95947.28;5092570;28;20273;-60
2021/04/27 05:14:42;;;;;;;1.13;1.13;;;;;;;4.34;53.73;95945.84;5092573;28;20176;-59
2021/04/27 05:17:09;;;;;;;1.10;1.10;;;;;;;4.23;53.75;95950.91;5093400;28;20233;-61
2021/04/27 05:19:36;;;;;;;1.17;1.10;;;;;;;4.44;53.38;95946.19;5093190;28;20173;-66
2021/04/27 05:22:03;;;;;;;0.87;0.87;;;;;;;4.27;53.55;95947.69;5092649;28;20168;-65
2021/04/27 05:24:30;;;;;;;1.27;1.20;;;;;;;4.40;53.13;95957.97;5092288;28;20626;-66
2021/04/27 05:26:56;;;;;;;1.00;1.00;;;;;;;4.55;53.27;95950.72;5093162;28;20217;-66
2021/04/27 05:29:24;;;;;;;1.37;1.37;;;;;;;4.57;52.66;95955.66;5092735;28;20249;-66
2021/04/27 05:31:52;;;;;;;1.20;1.17;;;;;;;4.64;52.45;95959.03;5092126;28;20173;-65
2021/04/27 05:34:20;;;;;;;1.10;1.10;;;;;;;4.81;52.16;95957.50;5092943;28;20748;-65
2021/04/27 05:36:46;;;;;;;1.17;1.17;;;;;;;4.93;52.41;95952.44;5082384;28;20183;-64
2021/04/27 05:39:13;;;;;;;3.63;1.40;;;;;;;5.15;51.46;95952.84;5092540;28;20211;-65
2021/04/27 05:41:39;;;;;;;1.20;1.20;;;;;;;5.18;51.82;95955.84;5091573;28;20565;-65
2021/04/27 05:44:05;;;;;;;1.00;1.00;;;;;;;5.35;51.69;95951.66;5092551;28;20283;-66
2021/04/27 05:46:30;;;;;;;1.20;1.17;;;;;;;5.46;50.64;95952.00;5090928;28;20728;-66
2021/04/27 05:48:56;;;;;;;1.07;1.07;;;;;;;5.63;50.94;95953.03;5092043;28;20191;-66
2021/04/27 05:51:21;;;;;;;1.20;1.20;;;;;;;5.74;49.69;95955.69;5091908;28;20256;-65
2021/04/27 05:53:47;;;;;;;2.07;1.40;;;;;;;5.98;49.30;95955.84;5092145;28;20200;-65
2021/04/27 05:56:12;;;;;;;1.10;1.10;;;;;;;6.10;49.31;95947.09;5090186;28;20286;-65
2021/04/27 05:58:38;;;;;;;1.17;1.17;;;;;;;6.17;48.66;95944.44;5091136;28;20276;-66
2021/04/27 06:01:04;;;;;;;1.10;1.10;;;;;;;6.07;49.68;95941.56;5092347;28;20583;-66
2021/04/27 06:03:29;;;;;;;1.17;1.17;;;;;;;6.17;48.95;95944.44;5091948;28;20204;-67
2021/04/27 06:05:55;;;;;;;1.80;1.70;;;;;;;6.38;48.38;95940.56;5092460;28;20184;-65
2021/04/27 06:08:20;;;;;;;1.33;1.23;;;;;;;6.17;48.88;95941.81;5092137;28;20173;-67
2021/04/27 06:10:46;;;;;;;1.47;1.33;;;;;;;6.50;48.52;95944.00;5091747;28;20183;-64
2021/04/27 06:13:11;;;;;;;1.33;1.33;;;;;;;6.50;47.82;95941.38;5091823;28;20287;-66
2021/04/27 06:15:37;;;;;;;1.50;1.40;;;;;;;6.65;47.95;95947.78;5091093;28;20173;-64
2021/04/27 06:18:03;;;;;;;1.60;1.50;;;;;;;6.80;47.49;95934.31;5070118;28;20623;-65
2021/04/27 06:20:29;;;;;;;1.23;1.23;;;;;;;6.91;47.97;95936.16;5086437;28;20633;-65
2021/04/27 06:22:54;;;;;;;1.37;1.27;;;;;;;7.20;47.49;95926.69;5091397;28;20238;-65
2021/04/27 06:25:22;;;;;;;1.40;1.40;;;;;;;7.16;47.30;95929.97;5070507;28;20605;-65
2021/04/27 06:27:48;;;;;;;1.60;1.50;;;;;;;7.00;47.61;95931.44;5089456;28;20234;-65
2021/04/27 06:30:15;;;;;;;1.93;1.60;;;;;;;7.18;47.04;95927.94;5091866;28;20245;-65
2021/04/27 06:32:40;;;;;;;1.63;1.53;;;;;;;7.34;46.53;95932.47;5091145;28;20208;-65
2021/04/27 06:35:06;;;;;;;1.77;1.67;;;;;;;7.33;46.03;95931.69;5091865;28;20535;-65
2021/04/27 06:37:32;;;;;;;1.73;1.63;;;;;;;7.77;45.85;95929.47;5090967;28;20249;-65
2021/04/27 06:39:58;;;;;;;1.40;1.40;;;;;;;7.72;45.66;95935.38;5073424;28;20668;-65
2021/04/27 06:42:23;;;;;;;5.93;1.97;;;;;;;7.86;45.43;95928.09;5072780;28;20210;-65
2021/04/27 06:44:49;;;;;;;1.50;1.40;;;;;;;7.80;47.83;95931.66;5092475;28;20648;-62
2021/04/27 06:47:14;;;;;;;1.47;1.37;;;;;;;7.64;47.43;95927.09;5093089;28;20192;-65
2021/04/27 06:49:41;;;;;;;1.80;1.70;;;;;;;7.93;46.11;95926.16;5092962;28;20468;-63
2021/04/27 06:52:08;;;;;;;1.70;1.60;;;;;;;8.18;45.41;95929.28;5091722;28;20237;-62
2021/04/27 06:54:33;;;;;;;1.77;1.67;;;;;;;8.23;44.85;95924.16;5072286;28;20706;-64
2021/04/27 06:57:02;;;;;;;2.33;2.13;;;;;;;8.30;44.56;95927.41;5088840;28;20236;-62
2021/04/27 06:59:31;;;;;;;1.87;1.70;;;;;;;8.28;44.63;95939.91;5090512;28;20202;-65
2021/04/27 07:02:03;;;;;;;1.83;1.73;;;;;;;8.14;44.77;95929.94;5091079;28;20172;-64
2021/04/27 07:04:29;;;;;;;2.70;1.90;;;;;;;7.92;45.72;95925.34;5090289;28;20207;-64
2021/04/27 07:06:55;;;;;;;1.60;1.50;;;;;;;7.98;45.33;95928.06;5091172;28;20173;-63
2021/04/27 07:09:20;;;;;;;2.20;2.00;;;;;;;7.63;46.14;95925.53;5090723;28;20176;-63
2021/04/27 07:11:46;;;;;;;1.80;1.70;;;;;;;7.93;46.18;95926.94;5090727;28;20172;-62
2021/04/27 07:14:12;;;;;;;2.00;1.90;;;;;;;8.25;45.96;95923.88;5091340;28;20205;-61
2021/04/27 07:16:38;;;;;;;2.17;1.80;;;;;;;8.39;45.19;95917.41;5090298;28;20629;-66
2021/04/27 07:19:03;;;;;;;2.07;1.90;;;;;;;8.38;44.53;95926.25;5075723;28;20189;-67
2021/04/27 07:21:29;;;;;;;1.30;1.30;;;;;;;8.37;45.14;95919.44;5069553;28;20241;-62
2021/04/27 07:23:54;;;;;;;1.97;1.77;;;;;;;8.14;45.56;95928.13;5081986;28;20652;-61
2021/04/27 07:26:22;;;;;;;1.80;1.70;;;;;;;8.05;45.82;95931.34;5091097;28;20652;-62
2021/04/27 07:28:48;;;;;;;1.83;1.73;;;;;;;8.28;46.26;95921.63;5090832;28;20208;-62
2021/04/27 07:31:13;;;;;;;1.90;1.77;;;;;;;8.44;44.75;95924.53;5091214;28;20257;-61
2021/04/27 07:33:39;;;;;;;1.70;1.60;;;;;;;8.36;45.42;95927.53;5090195;28;20246;-61
2021/04/27 07:36:04;;;;;;;2.00;1.90;;;;;;;8.39;45.41;95921.84;5091255;28;20169;-62
2021/04/27 07:38:30;;;;;;;2.10;2.00;;;;;;;8.33;45.71;95926.97;5090012;28;20197;-63
2021/04/27 07:40:55;;;;;;;1.90;1.70;;;;;;;8.10;46.15;95929.63;5090908;28;20230;-62
2021/04/27 07:43:21;;;;;;;1.70;1.60;;;;;;;8.19;45.88;95932.69;5090484;28;20547;-62
2021/04/27 07:45:47;;;;;;;1.53;1.47;;;;;;;8.21;46.16;95930.63;5090017;28;20372;-67
2021/04/27 07:48:12;;;;;;;1.73;1.63;;;;;;;8.63;45.80;95920.72;5090480;28;20176;-65
2021/04/27 07:50:38;;;;;;;1.50;1.50;;;;;;;9.07;44.78;95925.09;5090044;28;20195;-66
2021/04/27 07:53:04;;;;;;;1.53;1.50;;;;;;;9.23;44.11;95917.47;5090984;28;20200;-66
2021/04/27 07:55:30;;;;;;;1.70;1.60;;;;;;;9.46;43.55;95918.09;5090195;28;20192;-62
2021/04/27 07:57:56;;;;;;;1.73;1.63;;;;;;;9.60;43.99;95918.53;5062896;28;20245;-64
2021/04/27 08:00:27;;;;;;;3.43;1.80;;;;;;;9.57;43.19;95921.66;5067991;28;20180;-66
2021/04/27 08:02:53;;;;;;;2.00;1.90;;;;;;;9.84;43.03;95917.28;5061952;28;20665;-64
2021/04/27 08:05:22;;;;;;;2.13;2.00;;;;;;;9.85;43.05;95918.09;5067563;28;20177;-62
2021/04/27 08:07:49;;;;;;;1.80;1.70;;;;;;;9.82;42.37;95918.56;5057580;28;20181;-64
2021/04/27 08:10:15;;;;;;;2.10;2.00;;;;;;;9.52;43.42;95921.56;5062553;28;20170;-62
2021/04/27 08:12:43;;;;;;;1.93;1.80;;;;;;;9.31;43.72;95917.06;5061618;28;20560;-62
2021/04/27 08:15:12;;;;;;;2.40;2.20;;;;;;;9.41;43.70;95920.66;5036742;28;20261;-62
2021/04/27 08:17:37;;;;;;;2.43;1.80;;;;;;;9.32;44.19;95913.44;5061368;28;20202;-63
2021/04/27 08:20:05;;;;;;;2.37;2.17;;;;;;;9.20;43.94;95918.75;5062544;28;20166;-62
2021/04/27 08:22:31;;;;;;;3.30;2.03;;;;;;;9.34;43.90;95917.41;5061110;28;20281;-63
2021/04/27 08:24:57;;;;;;;2.30;2.10;;;;;;;9.39;43.73;95921.91;5057366;28;20603;-63
2021/04/27 08:27:23;;;;;;;2.33;2.13;;;;;;;9.62;43.79;95923.53;5063597;28;20178;-62
2021/04/27 08:29:48;;;;;;;2.70;1.97;;;;;;;9.63;43.35;95931.16;5064366;28;20172;-62
2021/04/27 08:32:14;;;;;;;1.80;1.70;;;;;;;9.41;44.54;95922.47;5060874;28;20683;-61
2021/04/27 08:34:40;;;;;;;2.10;1.97;;;;;;;9.62;43.62;95928.75;5055124;28;20163;-63
2021/04/27 08:37:05;;;;;;;2.17;2.07;;;;;;;9.54;43.41;95928.13;5059854;28;20192;-61
2021/04/27 08:39:31;;;;;;;2.30;2.10;;;;;;;9.74;44.32;95927.63;5065300;28;20249;-63
2021/04/27 08:41:56;;;;;;;2.60;2.40;;;;;;;9.84;43.74;95925.13;5062154;28;20181;-63
2021/04/27 08:44:24;;;;;;;2.37;2.17;;;;;;;9.75;43.81;95920.56;5061275;28;20197;-63
2021/04/27 08:46:50;;;;;;;2.30;2.10;;;;;;;9.73;43.26;95927.88;5070995;28;20185;-64
2021/04/27 08:49:16;;;;;;;2.83;2.63;;;;;;;9.91;43.58;95925.75;5065233;28;20183;-63
2021/04/27 08:51:43;;;;;;;2.50;2.30;;;;;;;9.90;43.43;95915.53;5071463;28;20252;-62
2021/04/27 08:54:08;;;;;;;2.10;2.00;;;;;;;10.17;43.59;95920.84;5065700;28;20215;-63
2021/04/27 08:56:34;;;;;;;2.47;2.27;;;;;;;10.24;42.77;95914.38;5071103;28;20240;-63
2021/04/27 08:59:00;;;;;;;2.03;1.90;;;;;;;10.43;42.32;95915.63;5092823;28;20253;-63
2021/04/27 09:01:26;;;;;;;2.13;2.03;;;;;;;10.66;42.47;95911.13;5093330;28;20204;-61
2021/04/27 09:03:54;;;;;;;2.53;2.30;;;;;;;10.51;42.77;95913.59;5093214;28;20276;-60
2021/04/27 09:06:22;;;;;;;2.50;2.20;;;;;;;10.72;43.88;95913.56;5071649;28;20622;-70
2021/04/27 09:08:49;;;;;;;2.27;2.17;;;;;;;10.52;42.21;95909.94;5073287;28;20226;-62
2021/04/27 09:11:29;;;;;;;2.47;2.27;;;;;;;10.69;42.13;95908.03;5093400;28;20192;-64
2021/04/27 09:14:20;;;;;;;2.00;1.90;;;;;;;10.73;41.64;95909.91;5092836;28;20208;-68
2021/04/27 09:16:59;;;;;;;2.53;2.33;;;;;;;10.45;42.16;95898.88;5092718;28;20208;-63
2021/04/27 09:19:39;;;;;;;2.10;2.00;;;;;;;10.74;42.19;95903.63;5092563;28;20193;-64
2021/04/27 09:22:18;;;;;;;2.63;2.50;;;;;;;10.99;42.11;95894.38;5093337;28;20173;-65
2021/04/27 09:24:45;;;;;;;3.53;2.60;;;;;;;10.90;42.09;95903.75;5092333;28;20233;-65
2021/04/27 09:27:13;;;;;;;3.30;2.70;;;;;;;11.08;41.51;95892.88;5089565;28;20698;-64
2021/04/27 09:29:40;;;;;;;2.60;2.20;;;;;;;11.42;41.56;95894.16;5092044;28;20218;-64
2021/04/27 09:32:07;;;;;;;2.70;2.50;;;;;;;11.31;40.98;95900.38;5091595;28;20195;-63
2021/04/27 09:34:36;;;;;;;3.87;2.67;;;;;;;11.01;41.24;95900.94;5092060;28;20229;-64
2021/04/27 09:37:11;;;;;;;2.60;2.40;;;;;;;11.19;41.99;95890.09;5092534;28;20180;-65
2021/04/27 09:39:50;;;;;;;2.67;2.43;;;;;;;11.08;41.98;95896.28;5091703;28;20709;-63
2021/04/27 09:42:18;;;;;;;3.90;2.43;;;;;;;11.26;41.94;95885.38;5092573;28;20573;-63
2021/04/27 09:44:50;;;;;;;2.87;2.67;;;;;;;11.47;41.39;95877.66;5091308;28;20192;-65
2021/04/27 09:47:23;;;;;;;2.63;2.43;;;;;;;11.53;40.72;95884.50;5092647;28;20184;-64
2021/04/27 09:49:58;;;;;;;3.30;3.00;;;;;;;11.45;41.28;95875.28;5091754;28;20185;-64
2021/04/27 09:52:28;;;;;;;3.13;2.93;;;;;;;11.16;41.21;95876.66;5078408;28;20207;-63
2021/04/27 09:55:07;;;;;;;4.03;3.13;;;;;;;11.37;41.21;95873.13;5091879;28;20641;-65
2021/04/27 09:57:38;;;;;;;2.70;2.50;;;;;;;11.16;41.63;95877.47;5060762;28;20592;-61
2021/04/27 10:00:41;;;;;;;3.40;3.10;;;;;;;11.26;41.27;95877.50;5052112;28;20181;-60
2021/04/27 10:03:09;;;;;;;2.73;2.53;;;;;;;11.27;41.22;95867.81;5052389;28;20732;-62
2021/04/27 10:05:36;;;;;;;2.80;2.60;;;;;;;11.45;41.27;95864.78;5051595;28;20174;-62
2021/04/27 10:08:03;;;;;;;2.73;2.53;;;;;;;11.56;41.46;95868.25;5053841;28;20265;-63
2021/04/27 10:10:36;;;;;;;2.87;2.67;;;;;;;11.65;41.21;95864.09;5053200;28;20641;-62
2021/04/27 10:13:04;;;;;;;4.13;2.97;;;;;;;11.86;41.41;95854.50;5055807;28;20202;-63
2021/04/27 10:15:31;;;;;;;2.20;2.10;;;;;;;12.04;40.75;95861.91;5052606;28;20268;-64
2021/04/27 10:17:59;;;;;;;2.53;2.33;;;;;;;12.01;40.41;95849.31;5054888;28;20202;-59
2021/04/27 10:20:26;;;;;;;3.00;2.70;;;;;;;11.92;39.92;95856.13;5056004;28;20181;-69
2021/04/27 10:22:52;;;;;;;3.77;3.00;;;;;;;11.68;40.07;95846.00;5063217;28;20262;-63
2021/04/27 10:25:26;;;;;;;3.60;3.07;;;;;;;11.83;39.76;95844.50;5072637;28;20178;-63
2021/04/27 10:27:57;;;;;;;6.03;2.73;;;;;;;11.79;39.98;95857.38;5071270;28;20658;-60
2021/04/27 10:30:42;;;;;;;3.77;3.37;;;;;;;11.87;40.15;95835.84;5064907;28;20173;-64
2021/04/27 10:33:11;;;;;;;3.03;2.83;;;;;;;12.04;39.73;95840.88;5061300;28;20206;-65
2021/04/27 10:36:10;;;;;;;3.83;3.30;;;;;;;12.01;39.30;95844.06;5054790;28;20174;-64
2021/04/27 10:38:43;;;;;;;3.80;3.37;;;;;;;11.86;39.31;95834.28;5058638;28;20346;-64
2021/04/27 10:41:12;;;;;;;3.07;2.70;;;;;;;12.22;39.31;95823.88;5061903;28;20178;-65
2021/04/27 10:43:41;;;;;;;3.13;2.80;;;;;;;12.21;38.83;95819.66;5066603;28;20569;-61
2021/04/27 10:46:16;;;;;;;3.93;3.00;;;;;;;12.09;39.19;95814.66;5056577;28;20186;-65
2021/04/27 10:48:47;;;;;;;2.90;2.70;;;;;;;12.26;38.92;95811.81;5051295;28;20177;-60
2021/04/27 10:51:24;;;;;;;3.00;2.70;;;;;;;12.33;38.55;95802.59;5043571;28;20227;-64
2021/04/27 10:54:08;;;;;;;3.20;2.90;;;;;;;12.34;37.69;95816.53;5057419;28;20261;-63
2021/04/27 10:56:36;;;;;;;3.50;3.20;;;;;;;12.27;37.66;95813.38;5070757;28;20235;-65
2021/04/27 10:59:13;;;;;;;3.80;3.00;;;;;;;12.03;38.12;95808.63;5090270;28;20215;-64
2021/04/27 11:01:43;;;;;;;3.30;2.97;;;;;;;12.07;37.86;95807.03;5090555;28;20164;-64
2021/04/27 11:04:30;;;;;;;3.23;2.93;;;;;;;12.36;37.91;95803.94;5081491;28;20204;-65
2021/04/27 11:07:20;;;;;;;3.07;2.77;;;;;;;12.32;36.64;95797.59;5090176;28;20259;-64
2021/04/27 11:10:09;;;;;;;3.27;2.93;;;;;;;12.43;36.17;95793.94;5090510;28;20165;-64
2021/04/27 11:12:37;;;;;;;2.67;2.47;;;;;;;12.63;36.15;95783.44;5079833;28;20251;-65
2021/04/27 11:15:06;;;;;;;3.13;2.93;;;;;;;12.69;35.58;95779.75;5091178;28;20173;-65
2021/04/27 11:17:35;;;;;;;3.13;2.90;;;;;;;12.82;35.88;95773.94;5090400;28;20279;-65
2021/04/27 11:20:02;;;;;;;3.20;2.90;;;;;;;12.94;36.34;95781.56;5071490;28;20184;-63
2021/04/27 11:22:33;;;;;;;7.63;3.17;;;;;;;13.02;35.71;95773.13;5090161;28;20212;-65
2021/04/27 11:25:01;;;;;;;3.17;2.87;;;;;;;13.13;35.41;95790.50;5090990;28;20173;-65
2021/04/27 11:27:27;;;;;;;3.30;2.80;;;;;;;13.03;35.65;95790.50;5091971;28;20180;-62
2021/04/27 11:30:09;;;;;;;3.23;2.93;;;;;;;12.98;35.79;95776.56;5092696;28;20629;-64
2021/04/27 11:32:37;;;;;;;2.97;2.50;;;;;;;13.10;36.07;95787.56;5095341;28;20332;-64
2021/04/27 11:35:16;;;;;;;3.33;3.03;;;;;;;13.07;35.31;95780.22;5095109;28;20242;-64
2021/04/27 11:37:44;;;;;;;3.53;3.23;;;;;;;13.13;35.44;95773.94;5094498;28;20263;-65
2021/04/27 11:40:22;;;;;;;2.90;2.70;;;;;;;13.10;34.55;95777.03;5095872;28;20203;-64
2021/04/27 11:43:12;;;;;;;4.27;3.07;;;;;;;13.26;35.19;95760.97;5093878;28;20207;-66